Time;durP1;ratioP1;P1;durP2;ratioP2;P2;SDS_P1;SDS_P2;PMS_P1;PMS_P2;Temp;Humidity;BMP_temperature;BMP_pressure;BME280_temperature;BME280_humidity;BME280_pressure;Samples;Min_cycle;Max_cycle;Signal;HPM_P1;HPM_P2
2022/01/03 00:00:33;;;;;;;4.28;0.73;;;17.40;54.50;16.60;100423.00;;;;4999199;28;20038;-68
2022/01/03 00:03:19;;;;;;;7.00;0.95;;;17.40;54.70;16.60;100423.00;;;;5002754;28;20052;-68
2022/01/03 00:06:05;;;;;;;5.65;0.93;;;17.40;54.60;16.60;100419.00;;;;4999222;28;20125;-68
2022/01/03 00:08:52;;;;;;;5.25;1.02;;;17.40;54.40;16.60;100429.00;;;;5011468;28;20526;-68
2022/01/03 00:11:39;;;;;;;5.57;1.02;;;17.40;54.30;16.60;100442.00;;;;5017517;28;20107;-68
2022/01/03 00:14:27;;;;;;;4.85;0.75;;;17.40;54.10;16.60;100445.00;;;;5019619;28;20056;-68
2022/01/03 00:17:13;;;;;;;5.35;0.98;;;17.40;54.00;16.50;100446.00;;;;4988980;28;20046;-68
2022/01/03 00:20:00;;;;;;;4.60;1.00;;;17.40;54.00;16.60;100459.00;;;;5007641;28;20080;-68
2022/01/03 00:23:06;;;;;;;3.78;0.90;;;17.40;53.90;16.60;100453.00;;;;5016500;28;20592;-68
2022/01/03 00:25:58;;;;;;;4.40;1.20;;;17.40;54.10;16.60;100464.00;;;;5017165;28;20560;-68
2022/01/03 00:28:54;;;;;;;7.20;0.77;;;17.40;54.10;16.60;100473.00;;;;5004003;28;20049;-68
2022/01/03 00:31:41;;;;;;;6.47;1.05;;;17.40;53.90;16.60;100466.00;;;;5005057;28;20145;-68
2022/01/03 00:34:27;;;;;;;6.38;1.10;;;17.40;54.00;16.60;100476.00;;;;4988645;28;20171;-68
2022/01/03 00:37:14;;;;;;;5.45;1.17;;;17.40;53.90;16.60;100483.00;;;;4991384;28;20511;-68
2022/01/03 00:40:01;;;;;;;3.92;0.80;;;17.40;54.10;16.60;100489.00;;;;4999900;28;20391;-69
2022/01/03 00:42:48;;;;;;;7.38;1.10;;;17.40;54.20;16.60;100489.00;;;;4983096;28;20041;-68
2022/01/03 00:45:34;;;;;;;5.03;0.90;;;17.50;54.00;16.60;100496.00;;;;5013321;28;20049;-69
2022/01/03 00:48:21;;;;;;;6.28;1.13;;;17.50;53.80;16.60;100483.00;;;;5021291;28;20300;-69
2022/01/03 00:51:07;;;;;;;6.60;1.58;;;17.50;54.00;16.60;100483.00;;;;5020300;28;20048;-68
2022/01/03 00:53:53;;;;;;;6.07;0.90;;;17.50;53.70;16.60;100488.00;;;;5019248;28;20054;-69
2022/01/03 00:56:46;;;;;;;4.90;1.20;;;17.50;53.80;16.60;100489.00;;;;5011882;28;20095;-68
2022/01/03 00:59:43;;;;;;;6.13;0.90;;;17.50;53.80;16.60;100496.00;;;;5017703;28;20041;-69
2022/01/03 01:02:29;;;;;;;4.63;1.05;;;17.50;53.70;16.60;100494.00;;;;5000932;28;20987;-68
2022/01/03 01:05:15;;;;;;;5.32;1.13;;;17.40;53.90;16.60;100494.00;;;;5006902;28;20041;-68
2022/01/03 01:08:01;;;;;;;6.22;1.25;;;17.50;53.70;16.60;100493.00;;;;5003555;28;20045;-68
2022/01/03 01:10:52;;;;;;;7.95;1.17;;;17.40;53.60;16.60;100500.00;;;;4996182;28;20160;-68
2022/01/03 01:13:41;;;;;;;5.88;1.23;;;17.40;53.70;16.50;100498.00;;;;5008350;28;20045;-69
2022/01/03 01:16:28;;;;;;;4.53;1.13;;;17.40;53.90;16.50;100506.00;;;;5017326;28;20338;-68
2022/01/03 01:19:14;;;;;;;5.80;1.20;;;17.40;53.60;16.50;100498.00;;;;5003739;28;20033;-69
2022/01/03 01:22:00;;;;;;;7.95;1.45;;;17.40;53.60;16.50;100506.00;;;;5015766;28;20074;-68
2022/01/03 01:25:10;;;;;;;6.45;1.02;;;17.40;53.60;16.50;100505.00;;;;4989616;28;20120;-68
2022/01/03 01:27:56;;;;;;;9.13;1.52;;;17.40;53.70;16.50;100520.00;;;;5017439;28;20055;-68
2022/01/03 01:30:43;;;;;;;3.75;1.05;;;17.40;53.60;16.50;100520.00;;;;5023950;28;20041;-68
2022/01/03 01:33:31;;;;;;;7.35;1.52;;;17.40;53.70;16.50;100517.00;;;;5018554;28;20041;-68
2022/01/03 01:36:17;;;;;;;6.28;1.10;;;17.40;53.50;16.50;100519.00;;;;4983972;28;21721;-68
2022/01/03 01:39:06;;;;;;;6.45;1.25;;;17.40;53.60;16.50;100515.00;;;;5008362;28;20342;-68
2022/01/03 01:41:59;;;;;;;7.32;1.40;;;17.40;53.50;16.50;100519.00;;;;5016271;28;21665;-68
2022/01/03 01:44:49;;;;;;;9.52;1.65;;;17.40;54.10;16.50;100529.00;;;;5019745;28;20081;-68
2022/01/03 01:47:38;;;;;;;9.40;1.58;;;17.40;53.50;16.50;100520.00;;;;5005829;28;20053;-68
2022/01/03 01:50:28;;;;;;;5.07;1.30;;;17.40;53.50;16.50;100529.00;;;;5017106;28;20475;-68
2022/01/03 01:53:15;;;;;;;5.38;1.10;;;17.40;53.60;16.50;100535.00;;;;5004535;28;20045;-68
2022/01/03 01:56:01;;;;;;;6.20;1.27;;;17.40;53.60;16.50;100528.00;;;;5007415;28;20044;-68
2022/01/03 01:59:13;;;;;;;5.93;1.20;;;17.40;53.80;16.50;100533.00;;;;4990953;28;20415;-68
2022/01/03 02:02:07;;;;;;;8.10;1.17;;;17.40;53.70;16.50;100536.00;;;;5024364;28;20546;-68
2022/01/03 02:05:28;;;;;;;6.55;1.85;;;17.40;53.70;16.50;100547.00;;;;5012925;28;20037;-68
2022/01/03 02:08:22;;;;;;;8.27;1.60;;;17.40;53.50;16.50;100535.00;;;;5021208;28;20410;-69
2022/01/03 02:11:19;;;;;;;7.80;1.20;;;17.40;53.70;16.50;100549.00;;;;5005575;28;20056;-68
2022/01/03 02:14:05;;;;;;;6.60;1.55;;;17.30;53.40;16.50;100545.00;;;;5003007;28;20041;-68
2022/01/03 02:16:52;;;;;;;8.77;1.58;;;17.30;53.50;16.50;100547.00;;;;5022085;28;20119;-68
2022/01/03 02:19:39;;;;;;;7.03;1.42;;;17.30;53.60;16.40;100544.00;;;;4994898;28;20038;-68
2022/01/03 02:22:25;;;;;;;9.48;1.40;;;17.40;53.60;16.50;100550.00;;;;5011660;28;20037;-68
2022/01/03 02:25:13;;;;;;;12.02;1.67;;;17.30;53.70;16.50;100553.00;;;;5027282;28;20038;-68
2022/01/03 02:27:59;;;;;;;;;;;17.30;53.50;16.40;100555.00;;;;5000660;28;20172;-68
2022/01/03 02:30:46;;;;;;;7.15;1.40;;;17.30;53.90;16.40;100566.00;;;;5026028;28;19920;-68
2022/01/03 02:33:33;;;;;;;5.13;2.00;;;17.30;53.60;16.40;100555.00;;;;5021998;28;20053;-68
2022/01/03 02:36:19;;;;;;;7.30;1.80;;;17.40;53.50;16.40;100563.00;;;;5019486;28;20035;-68
2022/01/03 02:39:05;;;;;;;8.60;1.73;;;17.30;53.40;16.40;100551.00;;;;5020929;28;20918;-68
2022/01/03 02:41:51;;;;;;;7.93;2.05;;;17.30;53.60;16.40;100563.00;;;;5022416;28;20069;-68
2022/01/03 02:44:37;;;;;;;7.07;1.40;;;17.30;53.40;16.40;100557.00;;;;5005047;28;20244;-68
2022/01/03 02:47:24;;;;;;;6.38;1.42;;;17.30;53.60;16.40;100555.00;;;;5005398;28;20498;-68
2022/01/03 02:50:10;;;;;;;8.43;1.77;;;17.30;53.50;16.40;100554.00;;;;5020585;28;20131;-68
2022/01/03 02:52:56;;;;;;;10.32;1.88;;;17.30;53.50;16.40;100549.00;;;;4993160;28;20042;-68
2022/01/03 02:55:42;;;;;;;9.85;2.28;;;17.30;53.40;16.40;100539.00;;;;5010603;28;20037;-68
2022/01/03 02:58:29;;;;;;;9.77;1.63;;;17.30;53.50;16.40;100556.00;;;;5010378;28;20118;-69
2022/01/03 03:01:15;;;;;;;8.25;1.63;;;17.30;53.40;16.40;100546.00;;;;5016251;28;20115;-68
2022/01/03 03:04:01;;;;;;;9.60;1.88;;;17.30;53.50;16.40;100548.00;;;;5009488;28;20152;-68
2022/01/03 03:06:48;;;;;;;14.38;2.45;;;17.30;53.60;16.40;100547.00;;;;5023619;28;20092;-69
2022/01/03 03:09:34;;;;;;;12.52;1.80;;;17.30;53.50;16.40;100549.00;;;;5022824;28;20511;-68
2022/01/03 03:12:21;;;;;;;9.07;1.75;;;17.30;53.50;16.40;100548.00;;;;5005648;28;20051;-69
2022/01/03 03:15:09;;;;;;;11.40;2.45;;;17.30;53.60;16.40;100559.00;;;;5022805;28;20098;-69
2022/01/03 03:17:55;;;;;;;9.38;1.90;;;17.30;53.40;16.40;100553.00;;;;5000621;28;20219;-69
2022/01/03 03:20:43;;;;;;;9.27;2.17;;;17.30;53.40;16.40;100548.00;;;;5019446;28;20037;-68
2022/01/03 03:23:30;;;;;;;13.65;1.85;;;17.30;53.40;16.40;100550.00;;;;5004210;28;20487;-68
2022/01/03 03:26:16;;;;;;;9.27;1.90;;;17.30;53.40;16.40;100550.00;;;;5023040;28;20081;-68
2022/01/03 03:29:02;;;;;;;11.68;2.08;;;17.30;53.30;16.40;100553.00;;;;5023776;28;20045;-68
2022/01/03 03:31:48;;;;;;;10.68;2.50;;;17.30;53.60;16.40;100557.00;;;;5018581;28;20053;-69
2022/01/03 03:34:34;;;;;;;7.38;1.73;;;17.30;53.40;16.40;100556.00;;;;5000392;28;20493;-68
2022/01/03 03:37:21;;;;;;;9.63;1.70;;;17.30;53.50;16.40;100559.00;;;;5022101;28;20065;-68
2022/01/03 03:40:07;;;;;;;10.88;2.20;;;17.30;53.60;16.40;100561.00;;;;5023011;28;20087;-68
2022/01/03 03:42:54;;;;;;;12.63;2.38;;;17.30;53.40;16.40;100559.00;;;;4988654;28;20042;-68
2022/01/03 03:45:40;;;;;;;11.23;2.67;;;17.20;53.40;16.40;100568.00;;;;5000902;28;20411;-68
2022/01/03 03:48:26;;;;;;;14.73;2.75;;;17.10;53.30;16.40;100557.00;;;;5008401;28;20037;-69
2022/01/03 03:51:12;;;;;;;16.58;2.72;;;17.20;53.30;16.40;100556.00;;;;5018921;28;20048;-69
2022/01/03 03:53:58;;;;;;;11.05;2.53;;;17.20;53.20;16.40;100553.00;;;;5019656;28;20049;-68
2022/01/03 03:56:45;;;;;;;10.50;2.08;;;17.20;53.40;16.30;100556.00;;;;5020773;28;20256;-68
2022/01/03 03:59:31;;;;;;;14.45;2.28;;;17.20;53.20;16.30;100560.00;;;;4986141;28;20744;-68
2022/01/03 04:02:17;;;;;;;9.93;1.80;;;17.20;53.30;16.30;100557.00;;;;5024503;28;20040;-68
2022/01/03 04:05:04;;;;;;;10.75;2.50;;;17.20;53.20;16.40;100559.00;;;;5014116;28;20115;-69
2022/01/03 04:07:50;;;;;;;14.13;2.10;;;17.20;53.30;16.40;100557.00;;;;5018040;28;20056;-68
2022/01/03 04:10:37;;;;;;;13.07;2.20;;;17.20;53.30;16.40;100554.00;;;;5018190;28;20444;-68
2022/01/03 04:13:23;;;;;;;11.20;2.30;;;17.20;53.20;16.40;100549.00;;;;5022756;28;20545;-69
2022/01/03 04:16:09;;;;;;;11.40;2.05;;;17.20;53.20;16.30;100556.00;;;;5023904;28;20033;-68
2022/01/03 04:18:56;;;;;;;12.85;2.28;;;17.20;53.30;16.40;100552.00;;;;5018738;28;20387;-68
2022/01/03 04:21:42;;;;;;;15.02;2.10;;;17.20;53.20;16.30;100549.00;;;;5005662;28;20734;-68
2022/01/03 04:24:28;;;;;;;7.38;1.75;;;17.20;53.10;16.30;100545.00;;;;5014445;28;20554;-68
2022/01/03 04:27:14;;;;;;;14.02;2.08;;;17.20;53.10;16.30;100556.00;;;;5002646;28;20270;-68
2022/01/03 04:30:00;;;;;;;13.35;1.88;;;17.20;53.10;16.40;100550.00;;;;5020905;28;20064;-68
2022/01/03 04:32:47;;;;;;;13.23;2.22;;;17.20;53.10;16.30;100543.00;;;;5019174;28;20128;-68
2022/01/03 04:35:34;;;;;;;14.13;2.30;;;17.20;53.10;16.30;100547.00;;;;5015637;28;20043;-68
2022/01/03 04:38:20;;;;;;;9.23;1.83;;;17.20;53.70;16.30;100554.00;;;;5019895;28;20079;-68
2022/01/03 04:41:06;;;;;;;15.05;2.30;;;17.20;53.10;16.30;100547.00;;;;5021958;28;20687;-68
2022/01/03 04:43:52;;;;;;;9.07;1.98;;;17.20;53.20;16.30;100553.00;;;;5023497;28;20447;-68
2022/01/03 04:46:38;;;;;;;10.35;2.30;;;17.20;53.10;16.30;100553.00;;;;5020800;28;20470;-68
2022/01/03 04:49:24;;;;;;;14.63;2.17;;;17.20;53.10;16.30;100540.00;;;;5014522;28;20182;-68
2022/01/03 04:52:11;;;;;;;12.38;1.95;;;17.20;53.10;16.30;100551.00;;;;5019137;28;20609;-69
2022/01/03 04:54:58;;;;;;;9.80;2.10;;;17.10;53.00;16.30;100542.00;;;;5020820;28;20399;-68
2022/01/03 04:57:44;;;;;;;9.60;1.90;;;17.20;53.00;16.30;100549.00;;;;5015457;28;20087;-68
2022/01/03 05:00:30;;;;;;;12.00;2.15;;;17.10;53.00;16.30;100546.00;;;;5020718;28;20468;-69
2022/01/03 05:03:16;;;;;;;13.77;1.92;;;17.10;53.00;16.30;100546.00;;;;4997280;28;20712;-68
2022/01/03 05:06:03;;;;;;;9.23;2.03;;;17.10;53.00;16.30;100549.00;;;;5020489;28;20403;-69
2022/01/03 05:08:49;;;;;;;11.32;2.33;;;17.10;52.90;16.30;100544.00;;;;5020105;28;20506;-68
2022/01/03 05:11:35;;;;;;;14.90;2.03;;;17.10;52.90;16.30;100534.00;;;;5017601;28;20407;-68
2022/01/03 05:14:21;;;;;;;14.60;2.15;;;17.10;52.90;16.30;100550.00;;;;5020081;28;20041;-69
2022/01/03 05:17:07;;;;;;;9.60;1.85;;;17.10;52.90;16.30;100552.00;;;;5015562;28;20033;-68
2022/01/03 05:19:53;;;;;;;9.80;2.30;;;17.10;52.90;16.30;100549.00;;;;5015609;28;20041;-68
2022/01/03 05:22:40;;;;;;;10.05;2.30;;;17.10;52.90;16.30;100550.00;;;;5018137;28;20046;-68
2022/01/03 05:25:26;;;;;;;15.07;2.47;;;17.10;52.90;16.30;100546.00;;;;5017869;28;20042;-68
2022/01/03 05:28:12;;;;;;;10.45;2.17;;;17.10;52.90;16.30;100539.00;;;;5014323;28;20573;-68
2022/01/03 05:30:58;;;;;;;11.77;2.30;;;17.10;53.00;16.30;100542.00;;;;5021848;28;20048;-68
2022/01/03 05:33:44;;;;;;;15.38;2.08;;;17.10;52.90;16.30;100547.00;;;;5020434;28;20041;-68
2022/01/03 05:36:30;;;;;;;12.75;3.03;;;17.10;53.10;16.30;100527.00;;;;5018763;28;21013;-68
2022/01/03 05:39:17;;;;;;;12.15;2.72;;;17.10;52.90;16.30;100533.00;;;;5020331;28;20041;-68
2022/01/03 05:42:03;;;;;;;9.73;2.05;;;17.10;52.80;16.30;100530.00;;;;4998983;28;20042;-68
2022/01/03 05:44:50;;;;;;;11.95;2.22;;;17.10;52.70;16.30;100532.00;;;;5018228;28;20045;-69
2022/01/03 05:47:36;;;;;;;10.02;2.00;;;17.10;52.80;16.20;100535.00;;;;5016281;28;20121;-68
2022/01/03 05:50:22;;;;;;;11.73;2.45;;;17.10;52.70;16.20;100536.00;;;;5018629;28;20053;-68
2022/01/03 05:53:09;;;;;;;11.88;2.63;;;17.10;52.70;16.20;100544.00;;;;5009868;28;20131;-68
2022/01/03 05:55:55;;;;;;;11.57;2.30;;;17.00;52.70;16.20;100545.00;;;;5021187;28;20045;-68
2022/01/03 05:58:41;;;;;;;12.57;2.20;;;17.10;52.80;16.30;100546.00;;;;5015459;28;20049;-68
2022/01/03 06:01:28;;;;;;;12.43;2.45;;;17.10;53.00;16.30;100543.00;;;;5018795;28;20037;-68
2022/01/03 06:07:05;;;;;;;11.80;1.88;;;17.10;52.80;16.30;100539.00;;;;4998820;28;20155;-68
2022/01/03 06:09:52;;;;;;;10.60;2.17;;;17.10;52.70;16.30;100538.00;;;;4990781;28;20240;-68
2022/01/03 06:12:38;;;;;;;9.43;2.15;;;17.10;52.90;16.30;100528.00;;;;5015718;28;20045;-68
2022/01/03 06:15:25;;;;;;;10.55;2.25;;;17.10;52.70;16.30;100526.00;;;;5016469;28;20180;-68
2022/01/03 06:18:15;;;;;;;14.73;3.22;;;17.10;52.70;16.30;100526.00;;;;4998434;28;20124;-68
2022/01/03 06:21:01;;;;;;;10.95;2.60;;;17.10;52.50;16.30;100521.00;;;;5004361;28;20045;-68
2022/01/03 06:23:47;;;;;;;13.23;2.28;;;17.10;52.50;16.20;100519.00;;;;5014484;28;20037;-68
2022/01/03 06:26:33;;;;;;;12.35;2.75;;;17.10;52.50;16.20;100519.00;;;;5016827;28;20049;-68
2022/01/03 06:29:20;;;;;;;11.63;2.03;;;17.10;52.50;16.20;100513.00;;;;5015163;28;20045;-68
2022/01/03 06:32:06;;;;;;;12.38;2.30;;;17.10;52.40;16.20;100529.00;;;;5008520;28;20045;-68
2022/01/03 06:34:53;;;;;;;12.77;2.58;;;17.10;52.50;16.20;100517.00;;;;5017338;28;20075;-69
2022/01/03 06:37:39;;;;;;;7.63;2.33;;;17.10;52.50;16.20;100517.00;;;;5016770;28;20724;-68
2022/01/03 06:40:26;;;;;;;8.43;1.92;;;17.10;52.70;16.20;100523.00;;;;5017818;28;20077;-68
2022/01/03 06:43:12;;;;;;;11.00;2.30;;;17.10;52.60;16.20;100522.00;;;;5013385;28;20529;-68
2022/01/03 06:45:58;;;;;;;11.50;2.58;;;17.10;52.70;16.30;100527.00;;;;5016961;28;20048;-68
2022/01/03 06:48:46;;;;;;;14.52;2.40;;;17.10;52.60;16.30;100528.00;;;;5005263;28;20037;-68
2022/01/03 06:51:34;;;;;;;13.43;2.40;;;17.10;52.70;16.30;100535.00;;;;5022336;28;20048;-68
2022/01/03 06:54:20;;;;;;;9.63;2.30;;;17.10;52.60;16.30;100537.00;;;;4979329;28;20076;-68
2022/01/03 06:57:06;;;;;;;9.93;2.88;;;17.10;52.60;16.30;100533.00;;;;5020782;28;20357;-68
2022/01/03 06:59:53;;;;;;;11.20;2.50;;;17.10;52.60;16.30;100539.00;;;;4998247;28;20045;-68
2022/01/03 07:02:42;;;;;;;10.75;2.22;;;17.10;52.40;16.30;100539.00;;;;4999401;28;20026;-68
2022/01/03 07:05:29;;;;;;;11.30;2.40;;;17.10;52.40;16.30;100532.00;;;;4992092;28;20502;-68
2022/01/03 07:08:16;;;;;;;9.15;2.33;;;17.10;52.30;16.30;100534.00;;;;5004715;28;20514;-68
2022/01/03 07:11:02;;;;;;;12.38;2.20;;;17.10;52.30;16.30;100536.00;;;;4998269;28;20084;-68
2022/01/03 07:13:52;;;;;;;12.32;3.10;;;17.10;52.40;16.30;100529.00;;;;4996459;28;20507;-68
2022/01/03 07:19:46;;;;;;;13.45;3.00;;;17.10;52.40;16.30;100539.00;;;;4997840;28;20568;-68
2022/01/03 07:22:37;;;;;;;11.95;2.28;;;17.10;52.50;16.30;100538.00;;;;4980962;28;20676;-68
2022/01/03 07:25:23;;;;;;;13.02;2.45;;;17.10;52.40;16.30;100543.00;;;;4971864;28;20519;-68
2022/01/03 07:28:09;;;;;;;11.27;2.25;;;17.10;52.40;16.30;100540.00;;;;4982207;28;20080;-68
2022/01/03 07:30:55;;;;;;;10.82;2.42;;;17.10;52.50;16.30;100553.00;;;;4982049;28;20076;-68
2022/01/03 07:33:42;;;;;;;11.52;2.70;;;17.10;52.50;16.30;100544.00;;;;4995686;28;20065;-68
2022/01/03 07:36:30;;;;;;;11.65;2.47;;;17.10;52.50;16.30;100539.00;;;;4993035;28;20607;-69
2022/01/03 07:39:24;;;;;;;13.73;2.58;;;17.10;52.60;16.30;100533.00;;;;4988030;28;20480;-68
2022/01/03 07:42:10;;;;;;;8.38;2.20;;;17.10;52.50;16.30;100546.00;;;;4985203;28;20096;-68
2022/01/03 07:44:56;;;;;;;12.70;2.88;;;17.20;52.50;16.30;100546.00;;;;4986944;28;20042;-68
2022/01/03 07:47:42;;;;;;;13.95;2.92;;;17.10;52.50;16.30;100556.00;;;;4992819;28;20157;-68
2022/01/03 07:50:29;;;;;;;12.43;2.35;;;17.20;52.70;16.30;100546.00;;;;4993763;28;20149;-68
2022/01/03 07:53:16;;;;;;;13.75;2.47;;;17.20;52.50;16.30;100543.00;;;;4995013;28;20476;-68
2022/01/03 07:56:04;;;;;;;11.63;2.80;;;17.20;52.70;16.30;100541.00;;;;4991071;28;20125;-68
2022/01/03 07:58:51;;;;;;;10.30;2.45;;;17.10;52.50;16.30;100533.00;;;;5002783;28;20053;-68
2022/01/03 08:01:40;;;;;;;9.35;2.47;;;17.20;52.50;16.30;100536.00;;;;5001677;28;20034;-69
2022/01/03 08:04:27;;;;;;;11.35;3.00;;;17.10;52.50;16.30;100521.00;;;;5017006;28;20041;-68
2022/01/03 08:07:13;;;;;;;9.27;2.15;;;17.20;52.50;16.30;100534.00;;;;5001669;28;20063;-68
2022/01/03 08:09:59;;;;;;;15.73;3.10;;;17.10;52.40;16.30;100535.00;;;;5001150;28;20459;-68
2022/01/03 08:12:45;;;;;;;12.75;2.78;;;17.10;52.60;16.30;100526.00;;;;5012258;28;20220;-68
2022/01/03 08:15:31;;;;;;;12.88;2.20;;;17.10;52.50;16.30;100530.00;;;;5020850;28;20038;-68
2022/01/03 08:18:17;;;;;;;11.57;2.30;;;17.10;52.60;16.30;100529.00;;;;5016495;28;20103;-68
2022/01/03 08:21:04;;;;;;;10.50;2.40;;;17.10;52.70;16.30;100534.00;;;;5015402;28;20156;-68
2022/01/03 08:23:51;;;;;;;13.00;2.80;;;17.10;52.60;16.30;100523.00;;;;4998382;28;20054;-68
2022/01/03 08:26:38;;;;;;;11.07;1.83;;;17.10;52.50;16.30;100533.00;;;;5016656;28;20087;-68
2022/01/03 08:29:24;;;;;;;8.05;2.28;;;17.10;52.50;16.30;100533.00;;;;4999789;28;20065;-68
2022/01/03 08:32:11;;;;;;;9.90;2.00;;;17.10;52.70;16.30;100521.00;;;;5020471;28;20087;-68
2022/01/03 08:34:57;;;;;;;13.55;2.90;;;17.20;52.70;16.30;100532.00;;;;5005725;28;20050;-68
2022/01/03 08:37:43;;;;;;;12.27;1.88;;;17.20;52.70;16.30;100532.00;;;;5020481;28;20494;-69
2022/01/03 08:40:31;;;;;;;13.60;3.10;;;17.20;52.70;16.30;100539.00;;;;5015822;28;20117;-68
2022/01/03 08:43:17;;;;;;;9.20;2.50;;;17.20;52.70;16.30;100544.00;;;;4999444;28;20391;-68
2022/01/03 08:46:03;;;;;;;11.70;2.47;;;17.20;52.50;16.30;100543.00;;;;5021151;28;20479;-69
2022/01/03 08:48:53;;;;;;;11.27;2.05;;;17.20;52.70;16.30;100548.00;;;;5007841;28;20060;-68
2022/01/03 08:51:39;;;;;;;9.20;2.05;;;17.20;52.60;16.30;100552.00;;;;5005858;28;20095;-68
2022/01/03 08:54:25;;;;;;;8.48;1.83;;;17.20;52.70;16.30;100540.00;;;;5014418;28;20073;-68
2022/01/03 08:57:11;;;;;;;12.88;2.55;;;17.20;52.60;16.30;100548.00;;;;5002332;28;20037;-68
2022/01/03 08:59:58;;;;;;;10.30;2.53;;;17.20;52.60;16.30;100542.00;;;;5010701;28;20065;-68
2022/01/03 09:02:45;;;;;;;6.13;1.80;;;17.20;52.50;16.30;100540.00;;;;5007460;28;20030;-68
2022/01/03 09:05:31;;;;;;;13.23;2.75;;;17.20;52.70;16.30;100534.00;;;;5015632;28;20542;-68
2022/01/03 09:08:18;;;;;;;8.75;2.15;;;17.20;52.60;16.30;100532.00;;;;5003833;28;20616;-68
2022/01/03 09:11:04;;;;;;;15.73;2.17;;;17.20;52.50;16.30;100540.00;;;;5013351;28;20501;-68
2022/01/03 09:13:50;;;;;;;9.15;2.05;;;17.10;52.50;16.30;100523.00;;;;5014021;28;20430;-68
2022/01/03 09:16:36;;;;;;;10.73;2.08;;;17.20;52.60;16.20;100525.00;;;;5003659;28;20049;-68
2022/01/03 09:19:22;;;;;;;9.60;1.85;;;17.10;52.50;16.30;100522.00;;;;5001081;28;20489;-68
2022/01/03 09:22:15;;;;;;;8.50;2.15;;;17.10;52.50;16.30;100513.00;;;;5020394;28;20256;-68
2022/01/03 09:30:54;;;;;;;9.52;2.08;;;17.10;52.50;16.20;100511.00;;;;5005745;28;20063;-68
2022/01/03 09:33:40;;;;;;;8.65;2.22;;;17.10;52.60;16.30;100504.00;;;;5013748;28;20064;-69
2022/01/03 09:36:27;;;;;;;7.90;1.70;;;17.10;52.80;16.30;100505.00;;;;5014754;28;20551;-68
2022/01/03 09:39:13;;;;;;;12.55;1.85;;;17.10;52.70;16.20;100515.00;;;;5013553;28;20640;-68
2022/01/03 09:42:05;;;;;;;12.85;2.05;;;17.30;52.80;16.30;100500.00;;;;5001874;28;20045;-68
2022/01/03 09:44:51;;;;;;;12.07;2.33;;;17.10;52.60;16.30;100497.00;;;;4993029;28;20137;-68
2022/01/03 09:47:42;;;;;;;7.43;1.83;;;17.10;52.60;16.30;100508.00;;;;4996221;28;20121;-68
2022/01/03 09:50:30;;;;;;;7.57;1.80;;;17.10;52.60;16.30;100503.00;;;;4993767;28;20044;-68
2022/01/03 09:53:18;;;;;;;10.75;2.38;;;17.10;52.50;16.30;100508.00;;;;5001104;28;20474;-68
2022/01/03 09:56:05;;;;;;;8.25;2.03;;;17.10;52.60;16.30;100511.00;;;;5005488;28;20041;-68
2022/01/03 09:58:51;;;;;;;10.60;2.30;;;17.10;52.60;16.20;100510.00;;;;5005841;28;20053;-68
2022/01/03 10:01:38;;;;;;;8.48;2.38;;;17.10;52.60;16.20;100498.00;;;;4996343;28;20034;-68
2022/01/03 10:04:24;;;;;;;8.90;2.25;;;17.10;53.20;16.20;100510.00;;;;5017321;28;20714;-68
2022/01/03 10:07:11;;;;;;;11.82;1.98;;;17.10;52.70;16.20;100504.00;;;;4984535;28;20041;-68
2022/01/03 10:09:58;;;;;;;9.52;2.03;;;17.10;52.70;16.20;100499.00;;;;5012255;28;20037;-68
2022/01/03 10:12:44;;;;;;;11.60;2.03;;;17.10;52.70;16.20;100495.00;;;;5017328;28;20620;-68
2022/01/03 10:15:30;;;;;;;8.75;1.70;;;17.10;52.80;16.20;100508.00;;;;5016731;28;20542;-68
2022/01/03 10:18:20;;;;;;;10.88;2.20;;;17.10;52.90;16.20;100499.00;;;;5012853;28;20214;-68
2022/01/03 10:21:38;;;;;;;6.47;1.75;;;17.10;52.80;16.20;100499.00;;;;5018934;28;20069;-68
2022/01/03 10:24:33;;;;;;;8.27;1.75;;;17.10;52.80;16.20;100481.00;;;;5003184;28;20098;-68
2022/01/03 10:27:22;;;;;;;11.73;1.95;;;17.10;52.80;16.20;100488.00;;;;5004486;28;20533;-68
2022/01/03 10:30:08;;;;;;;8.38;1.98;;;17.10;52.70;16.20;100475.00;;;;5004961;28;20566;-68
2022/01/03 10:32:55;;;;;;;4.70;1.52;;;17.10;52.70;16.10;100477.00;;;;4993708;28;20136;-68
2022/01/03 10:35:46;;;;;;;8.70;1.88;;;17.00;52.60;16.10;100493.00;;;;5022641;28;20087;-68
2022/01/03 10:38:45;;;;;;;10.00;1.60;;;17.00;52.80;16.10;100487.00;;;;5016601;28;20063;-68
2022/01/03 10:41:31;;;;;;;14.18;1.92;;;17.00;52.70;16.10;100475.00;;;;5004027;28;20033;-68
2022/01/03 10:44:32;;;;;;;8.88;1.58;;;17.00;52.80;16.10;100469.00;;;;5017653;28;20072;-68
2022/01/03 10:47:32;;;;;;;12.88;2.53;;;16.90;52.70;16.10;100470.00;;;;5005848;28;20486;-68
2022/01/03 10:50:30;;;;;;;8.68;2.03;;;16.90;52.80;16.10;100472.00;;;;5002836;28;20066;-68
2022/01/03 10:53:16;;;;;;;11.55;2.58;;;17.00;52.80;16.10;100481.00;;;;5019005;28;20038;-68
2022/01/03 10:56:31;;;;;;;6.45;1.77;;;17.00;52.80;16.10;100474.00;;;;5020043;28;20752;-69
2022/01/03 10:59:30;;;;;;;7.18;1.73;;;16.90;52.80;16.10;100472.00;;;;5017558;28;20049;-68
2022/01/03 11:02:16;;;;;;;9.13;2.05;;;16.90;52.70;16.10;100463.00;;;;5009801;28;20041;-68
2022/01/03 11:05:10;;;;;;;9.48;2.17;;;16.90;52.80;16.10;100470.00;;;;5016976;28;20395;-69
2022/01/03 11:10:51;;;;;;;8.25;2.03;;;17.00;52.90;16.10;100460.00;;;;5008391;28;20042;-68
2022/01/03 11:13:47;;;;;;;9.35;2.03;;;16.90;52.80;16.10;100462.00;;;;5015623;28;20049;-68
2022/01/03 11:16:36;;;;;;;10.88;1.98;;;16.90;52.70;16.10;100455.00;;;;5005330;28;20052;-68
2022/01/03 11:19:37;;;;;;;8.77;2.10;;;16.90;52.90;16.10;100452.00;;;;5001998;28;20038;-68
2022/01/03 11:22:45;;;;;;;9.80;1.70;;;16.90;52.80;16.10;100447.00;;;;5002868;28;20037;-69
2022/01/03 11:25:33;;;;;;;6.18;1.73;;;16.90;52.90;16.10;100454.00;;;;5002584;28;20041;-68
2022/01/03 11:28:26;;;;;;;11.52;2.15;;;16.90;52.90;16.10;100438.00;;;;5005642;28;20037;-68
2022/01/03 11:31:16;;;;;;;7.93;2.08;;;16.90;52.70;16.10;100443.00;;;;4994292;28;20132;-68
2022/01/03 11:34:02;;;;;;;9.38;2.35;;;17.00;52.70;16.10;100443.00;;;;5003663;28;20476;-68
2022/01/03 11:36:48;;;;;;;8.25;1.92;;;17.00;52.60;16.10;100439.00;;;;5003724;28;20045;-68
2022/01/03 11:39:36;;;;;;;11.45;1.67;;;16.90;52.60;16.10;100431.00;;;;4996805;28;20128;-68
2022/01/03 11:42:22;;;;;;;9.18;2.47;;;17.00;52.80;16.10;100425.00;;;;4998285;28;20043;-68
2022/01/03 11:45:09;;;;;;;7.22;2.00;;;16.90;52.60;16.10;100428.00;;;;4993350;28;20053;-68
2022/01/03 11:47:55;;;;;;;9.35;2.00;;;17.00;52.60;16.10;100424.00;;;;5008665;28;20180;-68
2022/01/03 11:50:42;;;;;;;11.00;2.50;;;17.00;52.50;16.10;100424.00;;;;5009046;28;20384;-68
2022/01/03 11:53:34;;;;;;;5.82;1.55;;;17.00;52.50;16.20;100418.00;;;;4983774;28;20462;-68
2022/01/03 11:56:22;;;;;;;8.05;2.10;;;17.00;52.40;16.10;100416.00;;;;5017487;28;20091;-68
2022/01/03 12:05:07;;;;;;;12.55;1.98;;;17.00;52.30;16.10;100407.00;;;;4965222;28;20038;-68
2022/01/03 12:07:57;;;;;;;10.55;2.00;;;17.00;52.40;16.10;100407.00;;;;4993178;28;20073;-68
2022/01/03 12:10:44;;;;;;;8.18;2.08;;;17.00;52.30;16.10;100410.00;;;;4987111;28;20034;-68
2022/01/03 12:13:52;;;;;;;8.30;2.00;;;16.90;52.20;16.10;100403.00;;;;4999089;28;20046;-68
2022/01/03 12:16:43;;;;;;;14.77;3.05;;;16.90;52.40;16.10;100398.00;;;;4997765;28;20073;-68
2022/01/03 12:19:37;;;;;;;14.80;2.58;;;17.00;52.30;16.20;100397.00;;;;4993145;28;20046;-68
2022/01/03 12:22:23;;;;;;;9.38;2.20;;;17.00;52.20;16.20;100398.00;;;;4998768;28;20060;-68
2022/01/03 12:25:23;;;;;;;10.73;2.08;;;17.00;52.30;16.20;100384.00;;;;4963124;28;20042;-68
2022/01/03 12:28:10;;;;;;;10.35;2.03;;;17.00;52.20;16.20;100394.00;;;;4976812;28;20042;-68
2022/01/03 12:30:56;;;;;;;12.43;2.42;;;17.00;52.40;16.20;100384.00;;;;4974170;28;20066;-68
2022/01/03 12:33:42;;;;;;;10.32;2.38;;;17.00;52.10;16.20;100379.00;;;;5000284;28;20077;-68
2022/01/03 12:36:29;;;;;;;11.73;2.45;;;17.00;52.10;16.20;100385.00;;;;4970059;28;20036;-68